Hovedside
METAR-TAF:

METAR-TAF

Lufthavner :

Tsjita, Russland

breddegrad: 52-05N, lengdegrad: 113-29E, høyde over havet: 685 m

Gjeldene værobservasjon

Denne rapporten ble laget for 34 minutter siden, klokken 19:00 UTC
Vind 2 kt fra skiftende retning
Temperatur -31°C
Luftfuktighet 55%
Trykk 1021 hPa
Sikt 10 km eller mer

METAR: UIAA 191900Z VRB01MPS 9999 NSC M31/M37 Q1021 R29/450155 NOSIG RMK QFE707/0942

Tid: 04:34 (19:34 UTC)

Varsel

Denne rapporten ble laget for 2 timer og 34 minutter siden, klokken 17:00 UTC
Varsel gyldig fra 19. klokken 18 UTC til 20. klokken 18 UTC
Vind 6 kt fra Vest med vindkast opp mot 17 kt
Sikt 10 km eller mer

TAF: UIAA 191700Z 1918/2018 27003G09MPS 9999 NSC

Værobservasjoner og værvarsel for over 4000 flyplasser (METAR- og TAF-rapporter).

Tilgjengelige stasjoner er representert av de røde og gule prikkene på kartet.

Hold musepekeren over prikken for å se navnet på stasjonen.

Klikk så for å se værobservasjoner og -varsler.

For å forandre kartet kan du klikke på den grønne knappen med svart kryss for å zoome inn, på den grønne knappen med strek for å zoome ut, eller på de grønne pilene for å se tilstøtende kart.


METAR-TAF: